Time;durP1;ratioP1;P1;durP2;ratioP2;P2;SDS_P1;SDS_P2;PMS_P1;PMS_P2;Temp;Humidity;BMP_temperature;BMP_pressure;BME280_temperature;BME280_humidity;BME280_pressure;Samples;Min_cycle;Max_cycle;Signal;HPM_P1;HPM_P2
2024/02/13 00:01:41;;;;;;;7.03;5.97;;;;;;;;;;6356766;28;20297;-54
2024/02/13 00:04:46;;;;;;;7.60;5.90;;;;;;;;;;6357821;28;20584;-55
2024/02/13 00:07:50;;;;;;;8.03;6.50;;;;;;;;;;6356822;28;20300;-57
2024/02/13 00:10:54;;;;;;;6.57;5.70;;;;;;;;;;6357500;28;20287;-57
2024/02/13 00:13:58;;;;;;;7.70;6.40;;;;;;;;;;6358020;28;20288;-55
2024/02/13 00:17:02;;;;;;;7.13;6.43;;;;;;;;;;6365394;27;20300;-56
2024/02/13 00:20:10;;;;;;;7.47;6.47;;;;;;;;;;6357338;28;20285;-56
2024/02/13 00:23:17;;;;;;;7.73;6.43;;;;;;;;;;6356694;28;20285;-53
2024/02/13 00:26:23;;;;;;;9.07;6.33;;;;;;;;;;6357092;28;20291;-54
2024/02/13 00:29:27;;;;;;;7.23;5.97;;;;;;;;;;6357817;28;20300;-56
2024/02/13 00:32:31;;;;;;;6.20;5.60;;;;;;;;;;6340243;28;20605;-55
2024/02/13 00:35:39;;;;;;;6.53;5.73;;;;;;;;;;6332027;28;20288;-56
2024/02/13 00:38:45;;;;;;;6.33;5.73;;;;;;;;;;6332554;28;20313;-56
2024/02/13 00:41:51;;;;;;;7.00;6.30;;;;;;;;;;6331481;28;20614;-56
2024/02/13 00:44:55;;;;;;;8.10;6.60;;;;;;;;;;6331395;28;20604;-56
2024/02/13 00:47:59;;;;;;;10.73;6.93;;;;;;;;;;6331969;28;20573;-56
2024/02/13 00:51:05;;;;;;;7.37;6.30;;;;;;;;;;6330987;28;20290;-58
2024/02/13 00:54:12;;;;;;;6.20;5.47;;;;;;;;;;6332193;28;20474;-56
2024/02/13 00:57:16;;;;;;;8.20;6.40;;;;;;;;;;6331384;28;20298;-54
2024/02/13 01:00:20;;;;;;;6.87;6.17;;;;;;;;;;6313002;28;20296;-55
2024/02/13 01:03:24;;;;;;;7.83;5.90;;;;;;;;;;6332196;28;20564;-55
2024/02/13 01:06:29;;;;;;;7.60;5.97;;;;;;;;;;6332049;28;20464;-54
2024/02/13 01:09:33;;;;;;;6.53;5.80;;;;;;;;;;6332216;28;20290;-57
2024/02/13 01:12:37;;;;;;;7.27;6.57;;;;;;;;;;6331169;28;20291;-54
2024/02/13 01:15:42;;;;;;;5.93;5.43;;;;;;;;;;6331302;28;20293;-53
2024/02/13 01:18:46;;;;;;;6.37;5.77;;;;;;;;;;6331944;28;20299;-56
2024/02/13 01:21:51;;;;;;;7.07;5.67;;;;;;;;;;6331387;28;20556;-54
2024/02/13 01:24:56;;;;;;;5.50;5.00;;;;;;;;;;6331687;28;20295;-55
2024/02/13 01:27:59;;;;;;;6.17;5.43;;;;;;;;;;6331945;28;20298;-55
2024/02/13 01:31:04;;;;;;;5.70;5.10;;;;;;;;;;6331356;28;20285;-56
2024/02/13 01:34:08;;;;;;;6.10;5.50;;;;;;;;;;6332337;28;20293;-56
2024/02/13 01:37:13;;;;;;;5.50;5.17;;;;;;;;;;6336034;28;20430;-54
2024/02/13 01:40:17;;;;;;;6.07;5.47;;;;;;;;;;6336059;28;20287;-55
2024/02/13 01:43:21;;;;;;;6.10;5.50;;;;;;;;;;6336181;28;20308;-56
2024/02/13 01:46:26;;;;;;;7.83;5.60;;;;;;;;;;6335733;28;20451;-56
2024/02/13 01:49:31;;;;;;;8.10;5.67;;;;;;;;;;6336104;28;20300;-55
2024/02/13 01:52:37;;;;;;;8.50;6.30;;;;;;;;;;6335442;28;20297;-55
2024/02/13 01:55:41;;;;;;;8.30;6.50;;;;;;;;;;6345996;28;20292;-54
2024/02/13 01:58:45;;;;;;;6.63;6.03;;;;;;;;;;6360879;28;20363;-54
2024/02/13 02:01:49;;;;;;;6.20;5.53;;;;;;;;;;6360120;28;20583;-55
2024/02/13 02:04:54;;;;;;;6.80;5.80;;;;;;;;;;6360743;28;20284;-54
2024/02/13 02:08:00;;;;;;;6.70;6.10;;;;;;;;;;6360069;28;20293;-56
2024/02/13 02:11:04;;;;;;;6.37;5.70;;;;;;;;;;6372380;27;20289;-56
2024/02/13 02:14:09;;;;;;;9.03;6.70;;;;;;;;;;6386315;27;20284;-55
2024/02/13 02:17:13;;;;;;;6.77;6.10;;;;;;;;;;6366445;27;20302;-55
2024/02/13 02:20:17;;;;;;;9.50;6.97;;;;;;;;;;6360118;28;20285;-55
2024/02/13 02:23:22;;;;;;;7.60;6.53;;;;;;;;;;6360006;28;20295;-53
2024/02/13 02:26:28;;;;;;;7.47;5.53;;;;;;;;;;6359795;28;20292;-56
2024/02/13 02:29:33;;;;;;;7.77;6.20;;;;;;;;;;6360487;28;20378;-56
2024/02/13 02:32:37;;;;;;;6.77;6.13;;;;;;;;;;6359620;28;20297;-54
2024/02/13 02:35:41;;;;;;;7.23;6.53;;;;;;;;;;6359846;28;20313;-55
2024/02/13 02:38:46;;;;;;;7.77;6.03;;;;;;;;;;6360431;28;20301;-57
2024/02/13 02:41:52;;;;;;;7.43;6.57;;;;;;;;;;6359376;28;20295;-56
2024/02/13 02:44:55;;;;;;;6.37;5.87;;;;;;;;;;6359316;28;20284;-56
2024/02/13 02:48:00;;;;;;;7.00;6.00;;;;;;;;;;6359081;28;20286;-56
2024/02/13 02:51:04;;;;;;;8.07;5.60;;;;;;;;;;6358357;28;20305;-58
2024/02/13 02:54:08;;;;;;;6.03;5.53;;;;;;;;;;6351116;28;20296;-55
2024/02/13 02:57:14;;;;;;;6.93;5.70;;;;;;;;;;6358949;28;20452;-54
2024/02/13 03:00:20;;;;;;;7.97;5.93;;;;;;;;;;6359072;28;20296;-56
2024/02/13 03:03:24;;;;;;;6.60;5.73;;;;;;;;;;6359313;28;20289;-55
2024/02/13 03:06:29;;;;;;;6.63;6.07;;;;;;;;;;6357979;28;20293;-56
2024/02/13 03:09:33;;;;;;;6.57;5.80;;;;;;;;;;6359003;28;20325;-56
2024/02/13 03:12:38;;;;;;;6.70;6.10;;;;;;;;;;6358813;28;20295;-54
2024/02/13 03:15:44;;;;;;;7.67;6.17;;;;;;;;;;6346361;27;20291;-55
2024/02/13 03:18:48;;;;;;;5.57;5.20;;;;;;;;;;6384653;27;20295;-54
2024/02/13 03:21:52;;;;;;;5.97;5.47;;;;;;;;;;6383889;27;20296;-55
2024/02/13 03:24:56;;;;;;;6.23;5.67;;;;;;;;;;6383632;27;20295;-58
2024/02/13 03:28:04;;;;;;;6.27;5.50;;;;;;;;;;6384506;27;20288;-55
2024/02/13 03:31:07;;;;;;;5.33;4.83;;;;;;;;;;6383677;27;20294;-56
2024/02/13 03:34:11;;;;;;;5.63;5.13;;;;;;;;;;6384250;27;20303;-56
2024/02/13 03:37:15;;;;;;;6.70;5.20;;;;;;;;;;6383175;27;20295;-55
2024/02/13 03:40:21;;;;;;;5.30;4.80;;;;;;;;;;6383486;27;20293;-55
2024/02/13 03:43:27;;;;;;;6.60;5.03;;;;;;;;;;6384119;27;20292;-54
2024/02/13 03:46:31;;;;;;;4.83;4.40;;;;;;;;;;6383694;27;20304;-57
2024/02/13 03:49:35;;;;;;;5.03;4.60;;;;;;;;;;6383831;27;20293;-55
2024/02/13 03:52:38;;;;;;;4.40;4.03;;;;;;;;;;6383121;27;20288;-57
2024/02/13 03:55:42;;;;;;;5.53;4.40;;;;;;;;;;6383107;27;20299;-57
2024/02/13 03:58:48;;;;;;;4.53;4.17;;;;;;;;;;6383927;27;20286;-56
2024/02/13 04:01:52;;;;;;;4.57;4.17;;;;;;;;;;6373416;27;20288;-55
2024/02/13 04:04:56;;;;;;;4.43;4.10;;;;;;;;;;6355723;28;20291;-56
2024/02/13 04:08:00;;;;;;;4.20;3.83;;;;;;;;;;6357964;28;20373;-56
2024/02/13 04:11:04;;;;;;;4.07;3.87;;;;;;;;;;6357122;28;20298;-55
2024/02/13 04:14:09;;;;;;;5.70;3.97;;;;;;;;;;6357470;28;20516;-54
2024/02/13 04:17:13;;;;;;;5.33;4.00;;;;;;;;;;6357738;28;20485;-55
2024/02/13 04:20:17;;;;;;;4.27;4.00;;;;;;;;;;6371511;27;20308;-56
2024/02/13 04:23:21;;;;;;;4.40;4.10;;;;;;;;;;6358078;28;20441;-53
2024/02/13 04:26:25;;;;;;;4.07;3.87;;;;;;;;;;6357546;28;20303;-54
2024/02/13 04:29:34;;;;;;;4.13;3.87;;;;;;;;;;6357540;28;20296;-55
2024/02/13 04:32:38;;;;;;;4.03;3.87;;;;;;;;;;6357999;28;20620;-56
2024/02/13 04:35:43;;;;;;;4.03;3.63;;;;;;;;;;6357121;28;20287;-54
2024/02/13 04:38:47;;;;;;;6.63;4.00;;;;;;;;;;6353295;28;20289;-53
2024/02/13 04:41:51;;;;;;;4.07;3.80;;;;;;;;;;6357643;28;20281;-55
2024/02/13 04:44:57;;;;;;;4.33;3.80;;;;;;;;;;6357148;28;20296;-56
2024/02/13 04:48:02;;;;;;;4.43;4.10;;;;;;;;;;6383286;28;20314;-55
2024/02/13 04:51:06;;;;;;;3.40;3.23;;;;;;;;;;6382272;28;20295;-53
2024/02/13 04:54:10;;;;;;;3.30;3.10;;;;;;;;;;6382800;27;20303;-54
2024/02/13 04:57:14;;;;;;;4.03;3.63;;;;;;;;;;6382518;28;20563;-55
2024/02/13 05:00:25;;;;;;;3.70;3.60;;;;;;;;;;6382354;27;20292;-55
2024/02/13 05:03:39;;;;;;;3.60;3.40;;;;;;;;;;6364532;28;20296;-55
2024/02/13 05:10:05;;;;;;;3.37;3.17;;;;;;;;;;6384405;27;20295;-55
2024/02/13 05:13:14;;;;;;;3.33;3.23;;;;;;;;;;6336911;28;20300;-56
2024/02/13 05:16:20;;;;;;;4.47;3.60;;;;;;;;;;6347409;28;20297;-56
2024/02/13 05:19:24;;;;;;;3.57;3.37;;;;;;;;;;6361776;28;20311;-55
2024/02/13 05:22:28;;;;;;;3.90;3.60;;;;;;;;;;6343542;28;20380;-55
2024/02/13 05:25:32;;;;;;;3.30;3.20;;;;;;;;;;6361645;28;20369;-54
2024/02/13 05:28:37;;;;;;;3.07;2.97;;;;;;;;;;6361410;28;20303;-55
2024/02/13 05:31:43;;;;;;;4.53;3.17;;;;;;;;;;6361886;28;20299;-55
2024/02/13 05:34:47;;;;;;;2.80;2.80;;;;;;;;;;6361324;28;20296;-56
2024/02/13 05:37:51;;;;;;;3.27;3.17;;;;;;;;;;6361266;28;20293;-56
2024/02/13 05:40:55;;;;;;;3.07;2.97;;;;;;;;;;6361102;28;20368;-56
2024/02/13 05:44:02;;;;;;;3.10;3.00;;;;;;;;;;6361113;28;20280;-55
2024/02/13 05:47:08;;;;;;;3.13;2.90;;;;;;;;;;6361896;28;20380;-56
2024/02/13 05:50:16;;;;;;;3.13;3.03;;;;;;;;;;6361071;28;20293;-57
2024/02/13 05:53:20;;;;;;;3.33;3.23;;;;;;;;;;6356917;28;20443;-55
2024/02/13 05:56:25;;;;;;;2.77;2.67;;;;;;;;;;6357502;28;20301;-54
2024/02/13 05:59:31;;;;;;;3.33;3.13;;;;;;;;;;6360802;28;20538;-58
2024/02/13 06:02:37;;;;;;;2.90;2.80;;;;;;;;;;6361357;28;20419;-54
2024/02/13 06:05:41;;;;;;;3.13;3.03;;;;;;;;;;6360779;28;20303;-56
2024/02/13 06:08:45;;;;;;;3.40;3.30;;;;;;;;;;6360793;28;20291;-56
2024/02/13 06:11:49;;;;;;;3.30;3.03;;;;;;;;;;6361171;28;20573;-58
2024/02/13 06:14:53;;;;;;;3.67;3.47;;;;;;;;;;6385866;27;20589;-56
2024/02/13 06:17:58;;;;;;;3.10;3.00;;;;;;;;;;6360891;27;20283;-55
2024/02/13 06:21:02;;;;;;;3.37;3.27;;;;;;;;;;6358669;28;20301;-57
2024/02/13 06:24:07;;;;;;;3.50;3.40;;;;;;;;;;6360289;28;20590;-55
2024/02/13 06:27:11;;;;;;;3.63;3.43;;;;;;;;;;6360768;28;20287;-56
2024/02/13 06:30:17;;;;;;;4.20;3.90;;;;;;;;;;6360256;28;20296;-53
2024/02/13 06:33:23;;;;;;;3.90;3.60;;;;;;;;;;6360416;28;20292;-55
2024/02/13 06:36:27;;;;;;;3.87;3.67;;;;;;;;;;6359948;28;20316;-55
2024/02/13 06:39:31;;;;;;;3.63;3.43;;;;;;;;;;6359465;28;20300;-56
2024/02/13 06:42:35;;;;;;;4.00;3.80;;;;;;;;;;6360566;28;20286;-55
2024/02/13 06:45:39;;;;;;;4.10;3.80;;;;;;;;;;6359623;28;20292;-56
2024/02/13 06:48:46;;;;;;;5.20;4.70;;;;;;;;;;6359338;28;20574;-54
2024/02/13 06:51:50;;;;;;;4.40;4.10;;;;;;;;;;6359807;28;20292;-54
2024/02/13 06:54:54;;;;;;;4.30;4.10;;;;;;;;;;6358901;28;20526;-56
2024/02/13 06:57:58;;;;;;;4.00;3.70;;;;;;;;;;6359477;28;20296;-56
2024/02/13 07:01:02;;;;;;;3.87;3.67;;;;;;;;;;6340313;28;20288;-58
2024/02/13 07:04:08;;;;;;;4.17;3.87;;;;;;;;;;6359092;28;20308;-57
2024/02/13 07:07:12;;;;;;;4.40;4.00;;;;;;;;;;6359636;28;20291;-57
2024/02/13 07:10:36;;;;;;;4.17;3.87;;;;;;;;;;6359639;28;20286;-57
2024/02/13 07:13:40;;;;;;;4.60;4.20;;;;;;;;;;6384332;27;20310;-55
2024/02/13 07:16:45;;;;;;;3.90;3.70;;;;;;;;;;6369852;27;20293;-55
2024/02/13 07:19:50;;;;;;;4.40;4.10;;;;;;;;;;6358815;28;20291;-55
2024/02/13 07:22:55;;;;;;;4.60;4.17;;;;;;;;;;6359270;28;20303;-55
2024/02/13 07:25:59;;;;;;;3.80;3.60;;;;;;;;;;6329940;28;20291;-57
2024/02/13 07:29:04;;;;;;;3.87;3.57;;;;;;;;;;6358387;28;20288;-57
2024/02/13 07:32:08;;;;;;;4.60;3.73;;;;;;;;;;6359032;28;20300;-55
2024/02/13 07:35:17;;;;;;;3.87;3.73;;;;;;;;;;6358645;28;20293;-55
2024/02/13 07:38:21;;;;;;;4.00;3.80;;;;;;;;;;6358889;28;20289;-56
2024/02/13 07:41:25;;;;;;;3.77;3.50;;;;;;;;;;6358146;28;20559;-56
2024/02/13 07:44:30;;;;;;;3.73;3.37;;;;;;;;;;6358372;28;20384;-53
2024/02/13 07:47:35;;;;;;;3.93;3.73;;;;;;;;;;6358728;28;20297;-55
2024/02/13 07:50:40;;;;;;;4.17;3.97;;;;;;;;;;6357856;28;20332;-57
2024/02/13 07:53:44;;;;;;;3.30;3.20;;;;;;;;;;6357748;28;20585;-55
2024/02/13 07:56:48;;;;;;;4.17;3.87;;;;;;;;;;6358185;28;20300;-55
2024/02/13 07:59:54;;;;;;;3.70;3.50;;;;;;;;;;6349766;28;20285;-58
2024/02/13 08:03:01;;;;;;;3.13;3.03;;;;;;;;;;6357909;28;20288;-56
2024/02/13 08:06:07;;;;;;;3.60;3.30;;;;;;;;;;6357211;28;20322;-55
2024/02/13 08:09:13;;;;;;;3.03;2.83;;;;;;;;;;6357440;28;20294;-57
2024/02/13 08:12:18;;;;;;;3.10;3.00;;;;;;;;;;6358019;28;20317;-57
2024/02/13 08:15:22;;;;;;;2.97;2.77;;;;;;;;;;6357146;28;20288;-56
2024/02/13 08:18:26;;;;;;;3.30;3.20;;;;;;;;;;6357715;28;20285;-56
2024/02/13 08:21:31;;;;;;;3.10;3.00;;;;;;;;;;6357058;28;20297;-56
2024/02/13 08:24:36;;;;;;;2.73;2.70;;;;;;;;;;6357023;28;20296;-55
2024/02/13 08:27:40;;;;;;;2.50;2.50;;;;;;;;;;6358035;28;20289;-56
2024/02/13 08:30:44;;;;;;;2.70;2.60;;;;;;;;;;6357034;28;20296;-56
2024/02/13 08:33:48;;;;;;;2.40;2.30;;;;;;;;;;6356539;28;20293;-55
2024/02/13 08:36:55;;;;;;;2.60;2.50;;;;;;;;;;6357371;28;20293;-55
2024/02/13 08:39:59;;;;;;;2.70;2.60;;;;;;;;;;6356577;28;20285;-54
2024/02/13 08:43:03;;;;;;;2.97;2.87;;;;;;;;;;6357674;28;20292;-55
2024/02/13 08:46:07;;;;;;;2.60;2.60;;;;;;;;;;6361195;28;20292;-56
2024/02/13 08:49:11;;;;;;;2.60;2.60;;;;;;;;;;6362685;28;20309;-56
2024/02/13 08:52:18;;;;;;;3.03;2.90;;;;;;;;;;6362800;28;20297;-56
2024/02/13 08:55:21;;;;;;;3.10;2.83;;;;;;;;;;6361852;28;20333;-55
2024/02/13 08:58:26;;;;;;;2.97;2.77;;;;;;;;;;6362266;28;20292;-55
2024/02/13 09:01:30;;;;;;;2.60;2.50;;;;;;;;;;6362124;28;20299;-56
2024/02/13 09:04:35;;;;;;;2.20;2.20;;;;;;;;;;6361686;28;20597;-57
2024/02/13 09:07:40;;;;;;;2.90;2.80;;;;;;;;;;6362046;28;20292;-56
2024/02/13 09:10:44;;;;;;;2.67;2.47;;;;;;;;;;6366581;27;20296;-55
2024/02/13 09:13:48;;;;;;;2.90;2.80;;;;;;;;;;6387163;27;20456;-56
2024/02/13 09:16:52;;;;;;;2.53;2.43;;;;;;;;;;6371651;27;20288;-55
2024/02/13 09:19:56;;;;;;;3.13;2.67;;;;;;;;;;6361589;28;20284;-55
2024/02/13 09:23:02;;;;;;;2.93;2.50;;;;;;;;;;6361911;28;20448;-56
2024/02/13 09:26:06;;;;;;;2.63;2.53;;;;;;;;;;6361156;28;20515;-56
2024/02/13 09:29:09;;;;;;;2.40;2.20;;;;;;;;;;6361514;28;20286;-57
2024/02/13 09:32:14;;;;;;;3.00;2.53;;;;;;;;;;6362139;28;20297;-57
2024/02/13 09:35:18;;;;;;;2.37;2.37;;;;;;;;;;6360914;28;20296;-57
2024/02/13 09:38:23;;;;;;;2.43;2.30;;;;;;;;;;6361530;28;20540;-56
2024/02/13 09:41:27;;;;;;;2.63;2.53;;;;;;;;;;6360966;28;20369;-57
2024/02/13 09:44:32;;;;;;;2.50;2.40;;;;;;;;;;6360992;28;20297;-56
2024/02/13 09:47:38;;;;;;;2.90;2.40;;;;;;;;;;6361406;28;20290;-57
2024/02/13 09:50:44;;;;;;;2.60;2.50;;;;;;;;;;6361026;28;20290;-56
2024/02/13 09:53:51;;;;;;;2.73;2.63;;;;;;;;;;6352346;28;20295;-58
2024/02/13 09:56:55;;;;;;;2.60;2.50;;;;;;;;;;6360810;28;20294;-55
2024/02/13 10:00:01;;;;;;;2.57;2.47;;;;;;;;;;6360686;28;20354;-56
2024/02/13 10:03:07;;;;;;;2.83;2.63;;;;;;;;;;6361082;28;20292;-56
2024/02/13 10:06:11;;;;;;;2.60;2.50;;;;;;;;;;6360935;28;20295;-57
2024/02/13 10:09:18;;;;;;;2.87;2.67;;;;;;;;;;6360818;28;20286;-57
2024/02/13 10:12:22;;;;;;;2.90;2.77;;;;;;;;;;6342197;28;20298;-55
2024/02/13 10:15:27;;;;;;;2.70;2.60;;;;;;;;;;6338519;28;20295;-57
2024/02/13 10:18:33;;;;;;;2.80;2.70;;;;;;;;;;6361223;28;20283;-55
2024/02/13 10:21:38;;;;;;;2.60;2.50;;;;;;;;;;6360265;28;20385;-56
2024/02/13 10:24:47;;;;;;;2.83;2.73;;;;;;;;;;6360301;28;20544;-57
2024/02/13 10:27:53;;;;;;;2.60;2.57;;;;;;;;;;6361168;28;20293;-57
2024/02/13 10:30:57;;;;;;;2.83;2.73;;;;;;;;;;6360482;28;20294;-54
2024/02/13 10:34:04;;;;;;;3.00;2.90;;;;;;;;;;6359773;28;20295;-57
2024/02/13 10:37:09;;;;;;;3.37;3.07;;;;;;;;;;6360386;28;20293;-57
2024/02/13 10:40:20;;;;;;;3.53;3.23;;;;;;;;;;6360009;28;20313;-55
2024/02/13 10:43:25;;;;;;;3.13;2.90;;;;;;;;;;6360821;28;20295;-57
2024/02/13 10:46:30;;;;;;;2.97;2.70;;;;;;;;;;6359968;28;20295;-56
2024/02/13 10:49:43;;;;;;;3.00;2.90;;;;;;;;;;6359928;28;20562;-57
2024/02/13 10:52:51;;;;;;;3.50;3.30;;;;;;;;;;6360051;28;20299;-55
2024/02/13 10:55:57;;;;;;;2.83;2.73;;;;;;;;;;6359385;28;20294;-55
2024/02/13 10:59:01;;;;;;;2.80;2.60;;;;;;;;;;6359174;28;20522;-55
2024/02/13 11:02:07;;;;;;;3.30;3.07;;;;;;;;;;6359711;28;20339;-55
2024/02/13 11:05:12;;;;;;;2.57;2.47;;;;;;;;;;6359446;28;20288;-54
2024/02/13 11:08:17;;;;;;;2.90;2.70;;;;;;;;;;6359454;28;20484;-57
2024/02/13 11:11:26;;;;;;;2.87;2.70;;;;;;;;;;6370253;27;20294;-57
2024/02/13 11:14:30;;;;;;;2.63;2.53;;;;;;;;;;6384783;27;20464;-58
2024/02/13 11:17:35;;;;;;;2.97;2.87;;;;;;;;;;6363341;27;20285;-57
2024/02/13 11:20:42;;;;;;;2.93;2.70;;;;;;;;;;6359108;28;20305;-55
2024/02/13 11:23:53;;;;;;;2.93;2.73;;;;;;;;;;6359022;28;20297;-56
2024/02/13 11:27:04;;;;;;;2.17;2.17;;;;;;;;;;6359432;28;20567;-57
2024/02/13 11:30:29;;;;;;;2.70;2.50;;;;;;;;;;6357741;28;20292;-56
2024/02/13 11:33:33;;;;;;;2.30;2.20;;;;;;;;;;6359395;28;20307;-57
2024/02/13 11:36:38;;;;;;;2.60;2.50;;;;;;;;;;6358610;28;20323;-54
2024/02/13 11:39:42;;;;;;;2.00;2.00;;;;;;;;;;6358515;28;20286;-55
2024/02/13 11:42:48;;;;;;;2.67;2.57;;;;;;;;;;6358680;28;20296;-51
2024/02/13 11:45:52;;;;;;;2.20;2.20;;;;;;;;;;6358204;28;20300;-55
2024/02/13 11:48:58;;;;;;;2.23;2.13;;;;;;;;;;6358138;28;20565;-55
2024/02/13 11:52:02;;;;;;;2.40;2.30;;;;;;;;;;6358752;28;20290;-56
2024/02/13 11:55:07;;;;;;;2.50;2.40;;;;;;;;;;6357633;28;20291;-56
2024/02/13 11:58:19;;;;;;;2.80;2.67;;;;;;;;;;6358718;28;20288;-55
2024/02/13 12:01:25;;;;;;;2.43;2.40;;;;;;;;;;6357960;28;20472;-53
2024/02/13 12:04:30;;;;;;;2.30;2.20;;;;;;;;;;6357721;28;20298;-56
2024/02/13 12:07:36;;;;;;;2.63;2.43;;;;;;;;;;6357796;28;20282;-56
2024/02/13 12:10:40;;;;;;;2.30;2.20;;;;;;;;;;6361979;27;20298;-57
2024/02/13 12:13:46;;;;;;;2.10;2.00;;;;;;;;;;6383235;27;20308;-56
2024/02/13 12:16:50;;;;;;;2.03;2.03;;;;;;;;;;6368174;27;20563;-56
2024/02/13 12:19:55;;;;;;;2.10;2.10;;;;;;;;;;6357479;28;20296;-56
2024/02/13 12:22:59;;;;;;;2.10;2.10;;;;;;;;;;6357826;28;20292;-55
2024/02/13 12:26:06;;;;;;;1.90;1.90;;;;;;;;;;6354491;28;20298;-58
2024/02/13 12:29:15;;;;;;;2.30;2.20;;;;;;;;;;6357522;28;20293;-57
2024/02/13 12:32:21;;;;;;;2.03;1.93;;;;;;;;;;6349250;28;20299;-56
2024/02/13 12:35:32;;;;;;;1.80;1.80;;;;;;;;;;6332179;28;20295;-55
2024/02/13 12:38:36;;;;;;;2.10;2.00;;;;;;;;;;6332067;28;20341;-55
2024/02/13 12:41:41;;;;;;;1.93;1.83;;;;;;;;;;6333049;28;20295;-55
2024/02/13 12:44:47;;;;;;;2.47;2.37;;;;;;;;;;6331931;28;20617;-55
2024/02/13 12:47:52;;;;;;;1.90;1.90;;;;;;;;;;6332526;28;20287;-55
2024/02/13 12:50:56;;;;;;;1.90;1.90;;;;;;;;;;6313553;28;20285;-55
2024/02/13 12:54:04;;;;;;;1.90;1.90;;;;;;;;;;6331787;28;20296;-54
2024/02/13 12:57:08;;;;;;;2.40;2.30;;;;;;;;;;6331666;28;20601;-53
2024/02/13 13:00:16;;;;;;;1.63;1.63;;;;;;;;;;6332059;28;20313;-55
2024/02/13 13:03:20;;;;;;;2.07;2.07;;;;;;;;;;6332394;28;20293;-54
2024/02/13 13:06:24;;;;;;;1.63;1.63;;;;;;;;;;6331327;28;20332;-57
2024/02/13 13:09:28;;;;;;;1.70;1.70;;;;;;;;;;6331823;28;20587;-54
2024/02/13 13:12:33;;;;;;;1.67;1.57;;;;;;;;;;6372730;27;20569;-55
2024/02/13 13:15:40;;;;;;;1.90;1.80;;;;;;;;;;6376625;28;20335;-56
2024/02/13 13:18:44;;;;;;;1.60;1.60;;;;;;;;;;6356972;28;20317;-55
2024/02/13 13:21:51;;;;;;;1.40;1.40;;;;;;;;;;6357639;28;20292;-55
2024/02/13 13:24:56;;;;;;;1.40;1.40;;;;;;;;;;6356785;28;20294;-56
2024/02/13 13:28:05;;;;;;;1.60;1.60;;;;;;;;;;6358562;28;20291;-56
2024/02/13 13:31:14;;;;;;;1.33;1.33;;;;;;;;;;6360929;28;20300;-55
2024/02/13 13:34:22;;;;;;;1.30;1.30;;;;;;;;;;6362084;28;20290;-56
2024/02/13 13:37:28;;;;;;;1.30;1.30;;;;;;;;;;6362362;28;20308;-54
2024/02/13 13:40:37;;;;;;;1.20;1.20;;;;;;;;;;6362686;28;20296;-56
2024/02/13 13:43:45;;;;;;;1.20;1.20;;;;;;;;;;6361736;28;20325;-58
2024/02/13 13:46:53;;;;;;;1.20;1.20;;;;;;;;;;6362092;28;20290;-55
2024/02/13 13:49:57;;;;;;;1.43;1.43;;;;;;;;;;6361234;28;20323;-56
2024/02/13 13:53:01;;;;;;;1.10;1.10;;;;;;;;;;6361526;28;20511;-55
2024/02/13 13:56:06;;;;;;;1.13;1.13;;;;;;;;;;6361084;28;20289;-55
2024/02/13 13:59:10;;;;;;;1.20;1.20;;;;;;;;;;6360910;28;20302;-56
2024/02/13 14:02:15;;;;;;;1.30;1.30;;;;;;;;;;6361554;28;20367;-55
2024/02/13 14:05:19;;;;;;;1.10;1.10;;;;;;;;;;6361122;28;20292;-54
2024/02/13 14:08:23;;;;;;;1.03;1.03;;;;;;;;;;6361369;28;20296;-55
2024/02/13 14:11:27;;;;;;;1.23;1.23;;;;;;;;;;6371765;27;20480;-52
2024/02/13 14:14:31;;;;;;;1.40;1.40;;;;;;;;;;6385926;27;20296;-54
2024/02/13 14:17:37;;;;;;;1.50;1.50;;;;;;;;;;6364680;27;20316;-54
2024/02/13 14:20:41;;;;;;;1.47;1.47;;;;;;;;;;6360482;28;20306;-55
2024/02/13 14:23:46;;;;;;;1.20;1.20;;;;;;;;;;6360640;28;20298;-56
2024/02/13 14:26:50;;;;;;;1.33;1.33;;;;;;;;;;6361096;28;20301;-54
2024/02/13 14:29:55;;;;;;;1.63;1.63;;;;;;;;;;6360345;28;20590;-56
2024/02/13 14:33:01;;;;;;;1.40;1.40;;;;;;;;;;6360729;28;20294;-55
2024/02/13 14:36:08;;;;;;;1.60;1.60;;;;;;;;;;6359804;28;20301;-56
2024/02/13 14:39:17;;;;;;;1.47;1.47;;;;;;;;;;6359983;28;20290;-52
2024/02/13 14:42:21;;;;;;;2.10;2.00;;;;;;;;;;6359430;28;20571;-55
2024/02/13 14:45:26;;;;;;;2.00;1.90;;;;;;;;;;6360065;28;20296;-54
2024/02/13 14:48:32;;;;;;;2.67;1.67;;;;;;;;;;6360587;28;20300;-54
2024/02/13 14:51:36;;;;;;;1.90;1.90;;;;;;;;;;6360003;28;20294;-55
2024/02/13 14:54:44;;;;;;;1.80;1.80;;;;;;;;;;6359603;28;20284;-55
2024/02/13 14:57:52;;;;;;;1.90;1.80;;;;;;;;;;6360146;28;20316;-54
2024/02/13 15:01:16;;;;;;;1.90;1.90;;;;;;;;;;6359870;28;20297;-55
2024/02/13 15:04:22;;;;;;;2.07;1.90;;;;;;;;;;6359821;28;20295;-56
2024/02/13 15:07:30;;;;;;;1.80;1.80;;;;;;;;;;6360692;28;20517;-56
2024/02/13 15:10:34;;;;;;;1.97;1.97;;;;;;;;;;6359406;28;20295;-55
2024/02/13 15:13:38;;;;;;;2.20;2.10;;;;;;;;;;6359193;28;20393;-55
2024/02/13 15:16:45;;;;;;;1.97;1.93;;;;;;;;;;6370381;27;20293;-55
2024/02/13 15:19:51;;;;;;;1.80;1.80;;;;;;;;;;6359538;28;20285;-55
2024/02/13 15:22:56;;;;;;;1.83;1.83;;;;;;;;;;6359773;28;20305;-55
2024/02/13 15:26:00;;;;;;;1.90;1.80;;;;;;;;;;6359170;28;20562;-55
2024/02/13 15:29:06;;;;;;;1.70;1.70;;;;;;;;;;6359070;28;20294;-54
2024/02/13 15:32:14;;;;;;;4.47;1.90;;;;;;;;;;6359382;28;20291;-54
2024/02/13 15:35:28;;;;;;;1.80;1.80;;;;;;;;;;6360696;28;20288;-55
2024/02/13 15:48:38;;;;;;;1.80;1.70;;;;;;;;;;6359788;28;20288;-55
2024/02/13 15:51:43;;;;;;;1.43;1.43;;;;;;;;;;6359707;28;20288;-54
2024/02/13 15:54:49;;;;;;;1.60;1.60;;;;;;;;;;6359096;28;20304;-54
2024/02/13 15:57:52;;;;;;;1.40;1.40;;;;;;;;;;6360297;28;20289;-55
2024/02/13 16:00:58;;;;;;;1.70;1.60;;;;;;;;;;6358919;28;20305;-55
2024/02/13 16:04:02;;;;;;;1.60;1.50;;;;;;;;;;6355719;28;20289;-55
2024/02/13 16:07:09;;;;;;;1.43;1.43;;;;;;;;;;6356085;28;20291;-55
2024/02/13 16:10:14;;;;;;;1.70;1.60;;;;;;;;;;6359485;28;20365;-50
2024/02/13 16:13:20;;;;;;;1.70;1.60;;;;;;;;;;6360145;28;20665;-56
2024/02/13 16:16:25;;;;;;;1.73;1.70;;;;;;;;;;6359144;28;20301;-56
2024/02/13 16:19:28;;;;;;;1.60;1.50;;;;;;;;;;6358390;28;20308;-60
2024/02/13 16:22:37;;;;;;;1.73;1.60;;;;;;;;;;6359657;28;20238;-57
2024/02/13 16:25:41;;;;;;;2.13;2.00;;;;;;;;;;6359542;28;20289;-55
2024/02/13 16:28:45;;;;;;;2.30;2.20;;;;;;;;;;6359012;28;20248;-58
2024/02/13 16:31:53;;;;;;;2.13;2.13;;;;;;;;;;6359725;28;20301;-56
2024/02/13 16:34:57;;;;;;;2.50;2.40;;;;;;;;;;6359105;28;20446;-54
2024/02/13 16:38:03;;;;;;;2.30;2.30;;;;;;;;;;6359268;28;20294;-55
2024/02/13 16:41:07;;;;;;;2.30;2.30;;;;;;;;;;6359044;28;20282;-53
2024/02/13 16:44:14;;;;;;;2.40;2.30;;;;;;;;;;6358893;28;20294;-54
2024/02/13 16:47:18;;;;;;;2.43;2.33;;;;;;;;;;6359607;28;20364;-56
2024/02/13 16:50:23;;;;;;;2.70;2.60;;;;;;;;;;6359053;28;20297;-55
2024/02/13 16:53:28;;;;;;;2.10;2.00;;;;;;;;;;6359276;28;20294;-54
2024/02/13 16:56:32;;;;;;;3.23;3.03;;;;;;;;;;6358754;28;20381;-54
2024/02/13 16:59:36;;;;;;;3.00;2.90;;;;;;;;;;6358500;28;20313;-55
2024/02/13 17:02:40;;;;;;;2.33;2.33;;;;;;;;;;6359143;28;20293;-56
2024/02/13 17:05:44;;;;;;;2.30;2.20;;;;;;;;;;6360115;28;20306;-56
2024/02/13 17:08:50;;;;;;;2.10;2.03;;;;;;;;;;6345448;28;20465;-55
2024/02/13 17:11:54;;;;;;;2.00;1.90;;;;;;;;;;6364211;28;20282;-55
2024/02/13 17:14:57;;;;;;;2.70;1.87;;;;;;;;;;6363510;28;20354;-54
2024/02/13 17:18:02;;;;;;;2.23;2.13;;;;;;;;;;6364129;28;20292;-56
2024/02/13 17:21:06;;;;;;;2.03;2.03;;;;;;;;;;6363648;28;20293;-55
2024/02/13 17:24:11;;;;;;;1.93;1.93;;;;;;;;;;6363295;28;20306;-56
2024/02/13 17:27:15;;;;;;;2.67;2.60;;;;;;;;;;6364498;28;20294;-54
2024/02/13 17:30:19;;;;;;;2.77;2.70;;;;;;;;;;6363426;28;20289;-54
2024/02/13 17:33:23;;;;;;;3.30;3.10;;;;;;;;;;6363824;28;20577;-56
2024/02/13 17:36:27;;;;;;;3.23;3.03;;;;;;;;;;6362579;28;20373;-56
2024/02/13 17:39:33;;;;;;;3.97;3.77;;;;;;;;;;6363020;28;20304;-57
2024/02/13 17:42:36;;;;;;;4.73;4.43;;;;;;;;;;6363455;28;20609;-52
2024/02/13 17:45:40;;;;;;;5.30;4.90;;;;;;;;;;6362874;28;20471;-55
2024/02/13 17:48:48;;;;;;;5.27;4.77;;;;;;;;;;6362656;28;20298;-55
2024/02/13 17:51:52;;;;;;;5.20;4.87;;;;;;;;;;6363302;28;20300;-57
2024/02/13 17:54:58;;;;;;;5.57;5.17;;;;;;;;;;6366428;27;20314;-56
2024/02/13 17:58:02;;;;;;;4.57;4.33;;;;;;;;;;6388904;27;20292;-56
2024/02/13 18:01:05;;;;;;;4.30;4.00;;;;;;;;;;6388041;27;20292;-55
2024/02/13 18:04:09;;;;;;;4.77;4.33;;;;;;;;;;6387946;27;20396;-54
2024/02/13 18:07:13;;;;;;;6.27;5.67;;;;;;;;;;6388481;27;20340;-55
2024/02/13 18:10:19;;;;;;;10.40;7.83;;;;;;;;;;6372714;27;20320;-53
2024/02/13 18:13:23;;;;;;;6.30;4.80;;;;;;;;;;6388472;27;20295;-55
2024/02/13 18:16:27;;;;;;;4.33;3.97;;;;;;;;;;6387462;27;20299;-56
2024/02/13 18:19:30;;;;;;;4.37;4.07;;;;;;;;;;6386835;27;20284;-55
2024/02/13 18:22:34;;;;;;;5.10;4.60;;;;;;;;;;6387565;27;20241;-56
2024/02/13 18:25:40;;;;;;;4.70;4.40;;;;;;;;;;6386804;27;20295;-54
2024/02/13 18:28:44;;;;;;;4.67;4.27;;;;;;;;;;6386647;27;20431;-56
2024/02/13 18:31:48;;;;;;;4.63;4.30;;;;;;;;;;6387469;27;20289;-56
2024/02/13 18:34:53;;;;;;;4.47;4.20;;;;;;;;;;6386884;27;20284;-54
2024/02/13 18:37:57;;;;;;;5.20;4.77;;;;;;;;;;6387388;27;20290;-54
2024/02/13 18:41:02;;;;;;;4.90;4.53;;;;;;;;;;6386937;27;20291;-57
2024/02/13 18:44:06;;;;;;;4.87;4.47;;;;;;;;;;6387121;27;20320;-57